sensor_id;sensor_type;location;lat;lon;timestamp;P1;durP1;ratioP1;P2;durP2;ratioP2
19095;SDS011;9680;52.520;13.332;2024-03-02T00:00:38;58.03;;;21.97;;
19095;SDS011;9680;52.520;13.332;2024-03-02T00:03:05;60.77;;;22.53;;
19095;SDS011;9680;52.520;13.332;2024-03-02T00:05:34;54.63;;;21.93;;
19095;SDS011;9680;52.520;13.332;2024-03-02T00:08:03;61.63;;;21.60;;
19095;SDS011;9680;52.520;13.332;2024-03-02T00:10:33;58.27;;;20.60;;
19095;SDS011;9680;52.520;13.332;2024-03-02T00:13:05;62.93;;;22.83;;
19095;SDS011;9680;52.520;13.332;2024-03-02T00:15:37;55.97;;;21.03;;
19095;SDS011;9680;52.520;13.332;2024-03-02T00:18:09;64.90;;;22.33;;
19095;SDS011;9680;52.520;13.332;2024-03-02T00:20:38;59.37;;;22.07;;
19095;SDS011;9680;52.520;13.332;2024-03-02T00:23:07;59.23;;;22.60;;
19095;SDS011;9680;52.520;13.332;2024-03-02T00:25:36;55.87;;;20.97;;
19095;SDS011;9680;52.520;13.332;2024-03-02T00:28:09;62.40;;;22.57;;
19095;SDS011;9680;52.520;13.332;2024-03-02T00:30:51;56.20;;;21.23;;
19095;SDS011;9680;52.520;13.332;2024-03-02T00:33:22;58.80;;;22.20;;
19095;SDS011;9680;52.520;13.332;2024-03-02T00:35:50;58.90;;;22.07;;
19095;SDS011;9680;52.520;13.332;2024-03-02T00:38:18;62.53;;;22.33;;
19095;SDS011;9680;52.520;13.332;2024-03-02T00:40:45;58.00;;;21.77;;
19095;SDS011;9680;52.520;13.332;2024-03-02T00:43:18;57.10;;;21.50;;
19095;SDS011;9680;52.520;13.332;2024-03-02T00:46:11;57.87;;;22.67;;
19095;SDS011;9680;52.520;13.332;2024-03-02T00:48:38;62.83;;;21.60;;
19095;SDS011;9680;52.520;13.332;2024-03-02T00:51:11;56.23;;;21.60;;
19095;SDS011;9680;52.520;13.332;2024-03-02T00:53:39;58.07;;;21.87;;
19095;SDS011;9680;52.520;13.332;2024-03-02T00:56:07;63.30;;;22.57;;
19095;SDS011;9680;52.520;13.332;2024-03-02T00:58:36;58.03;;;21.83;;
19095;SDS011;9680;52.520;13.332;2024-03-02T01:01:03;57.57;;;22.10;;
19095;SDS011;9680;52.520;13.332;2024-03-02T01:03:29;63.27;;;22.57;;
19095;SDS011;9680;52.520;13.332;2024-03-02T01:05:57;58.70;;;22.60;;
19095;SDS011;9680;52.520;13.332;2024-03-02T01:08:24;55.77;;;22.00;;
19095;SDS011;9680;52.520;13.332;2024-03-02T01:10:53;66.43;;;22.20;;
19095;SDS011;9680;52.520;13.332;2024-03-02T01:13:20;57.23;;;22.20;;
19095;SDS011;9680;52.520;13.332;2024-03-02T01:15:47;52.50;;;20.83;;
19095;SDS011;9680;52.520;13.332;2024-03-02T01:18:14;64.07;;;22.20;;
19095;SDS011;9680;52.520;13.332;2024-03-02T01:20:41;56.57;;;23.03;;
19095;SDS011;9680;52.520;13.332;2024-03-02T01:23:08;64.10;;;24.47;;
19095;SDS011;9680;52.520;13.332;2024-03-02T01:25:35;65.37;;;23.37;;
19095;SDS011;9680;52.520;13.332;2024-03-02T01:28:03;60.83;;;23.13;;
19095;SDS011;9680;52.520;13.332;2024-03-02T01:30:31;57.10;;;22.17;;
19095;SDS011;9680;52.520;13.332;2024-03-02T01:32:57;55.93;;;22.73;;
19095;SDS011;9680;52.520;13.332;2024-03-02T01:35:25;65.80;;;24.30;;
19095;SDS011;9680;52.520;13.332;2024-03-02T01:37:52;60.80;;;24.20;;
19095;SDS011;9680;52.520;13.332;2024-03-02T01:40:19;63.20;;;23.73;;
19095;SDS011;9680;52.520;13.332;2024-03-02T01:42:46;68.80;;;24.10;;
19095;SDS011;9680;52.520;13.332;2024-03-02T01:45:14;63.87;;;23.47;;
19095;SDS011;9680;52.520;13.332;2024-03-02T01:47:41;63.97;;;22.80;;
19095;SDS011;9680;52.520;13.332;2024-03-02T01:50:08;66.60;;;23.57;;
19095;SDS011;9680;52.520;13.332;2024-03-02T01:52:38;64.40;;;24.77;;
19095;SDS011;9680;52.520;13.332;2024-03-02T01:55:05;57.37;;;23.63;;
19095;SDS011;9680;52.520;13.332;2024-03-02T01:57:37;63.73;;;24.23;;
19095;SDS011;9680;52.520;13.332;2024-03-02T02:00:04;58.70;;;23.10;;
19095;SDS011;9680;52.520;13.332;2024-03-02T02:02:38;60.67;;;24.70;;
19095;SDS011;9680;52.520;13.332;2024-03-02T02:05:05;63.97;;;24.23;;
19095;SDS011;9680;52.520;13.332;2024-03-02T02:07:32;72.50;;;27.30;;
19095;SDS011;9680;52.520;13.332;2024-03-02T02:10:00;64.50;;;26.00;;
19095;SDS011;9680;52.520;13.332;2024-03-02T02:12:27;66.90;;;24.97;;
19095;SDS011;9680;52.520;13.332;2024-03-02T02:14:54;70.73;;;25.77;;
19095;SDS011;9680;52.520;13.332;2024-03-02T02:17:21;67.90;;;25.87;;
19095;SDS011;9680;52.520;13.332;2024-03-02T02:19:49;70.90;;;26.00;;
19095;SDS011;9680;52.520;13.332;2024-03-02T02:22:17;75.83;;;28.03;;
19095;SDS011;9680;52.520;13.332;2024-03-02T02:24:43;69.23;;;27.87;;
19095;SDS011;9680;52.520;13.332;2024-03-02T02:27:10;70.57;;;27.60;;
19095;SDS011;9680;52.520;13.332;2024-03-02T02:29:39;75.17;;;27.63;;
19095;SDS011;9680;52.520;13.332;2024-03-02T02:32:07;66.73;;;27.40;;
19095;SDS011;9680;52.520;13.332;2024-03-02T02:34:33;74.57;;;26.60;;
19095;SDS011;9680;52.520;13.332;2024-03-02T02:37:00;73.83;;;27.83;;
19095;SDS011;9680;52.520;13.332;2024-03-02T02:39:29;76.37;;;27.40;;
19095;SDS011;9680;52.520;13.332;2024-03-02T02:41:55;67.67;;;26.77;;
19095;SDS011;9680;52.520;13.332;2024-03-02T02:44:22;70.67;;;27.30;;
19095;SDS011;9680;52.520;13.332;2024-03-02T02:46:49;71.70;;;27.27;;
19095;SDS011;9680;52.520;13.332;2024-03-02T02:49:16;71.23;;;27.03;;
19095;SDS011;9680;52.520;13.332;2024-03-02T02:51:43;72.83;;;27.47;;
19095;SDS011;9680;52.520;13.332;2024-03-02T02:54:10;71.57;;;27.13;;
19095;SDS011;9680;52.520;13.332;2024-03-02T02:56:38;71.40;;;26.90;;
19095;SDS011;9680;52.520;13.332;2024-03-02T02:59:04;71.40;;;27.50;;
19095;SDS011;9680;52.520;13.332;2024-03-02T03:01:31;73.03;;;28.43;;
19095;SDS011;9680;52.520;13.332;2024-03-02T03:03:58;79.83;;;28.50;;
19095;SDS011;9680;52.520;13.332;2024-03-02T03:06:24;73.73;;;28.27;;
19095;SDS011;9680;52.520;13.332;2024-03-02T03:08:51;74.67;;;27.10;;
19095;SDS011;9680;52.520;13.332;2024-03-02T03:11:18;68.57;;;26.97;;
19095;SDS011;9680;52.520;13.332;2024-03-02T03:13:46;71.30;;;27.37;;
19095;SDS011;9680;52.520;13.332;2024-03-02T03:16:13;73.37;;;27.83;;
19095;SDS011;9680;52.520;13.332;2024-03-02T03:18:40;83.90;;;27.57;;
19095;SDS011;9680;52.520;13.332;2024-03-02T03:21:07;71.20;;;26.63;;
19095;SDS011;9680;52.520;13.332;2024-03-02T03:23:33;70.43;;;26.83;;
19095;SDS011;9680;52.520;13.332;2024-03-02T03:26:00;69.20;;;26.57;;
19095;SDS011;9680;52.520;13.332;2024-03-02T03:28:27;71.47;;;27.47;;
19095;SDS011;9680;52.520;13.332;2024-03-02T03:30:55;72.03;;;26.83;;
19095;SDS011;9680;52.520;13.332;2024-03-02T03:33:22;74.33;;;27.63;;
19095;SDS011;9680;52.520;13.332;2024-03-02T03:35:48;66.93;;;25.90;;
19095;SDS011;9680;52.520;13.332;2024-03-02T03:38:15;70.63;;;26.90;;
19095;SDS011;9680;52.520;13.332;2024-03-02T03:40:42;72.70;;;26.87;;
19095;SDS011;9680;52.520;13.332;2024-03-02T03:43:10;69.20;;;26.40;;
19095;SDS011;9680;52.520;13.332;2024-03-02T03:45:36;65.10;;;25.43;;
19095;SDS011;9680;52.520;13.332;2024-03-02T03:48:05;68.73;;;27.93;;
19095;SDS011;9680;52.520;13.332;2024-03-02T03:50:32;65.63;;;25.50;;
19095;SDS011;9680;52.520;13.332;2024-03-02T03:52:59;64.70;;;25.07;;
19095;SDS011;9680;52.520;13.332;2024-03-02T03:55:25;67.13;;;26.00;;
19095;SDS011;9680;52.520;13.332;2024-03-02T03:57:52;71.23;;;27.57;;
19095;SDS011;9680;52.520;13.332;2024-03-02T04:00:19;70.43;;;25.30;;
19095;SDS011;9680;52.520;13.332;2024-03-02T04:02:45;67.33;;;25.73;;
19095;SDS011;9680;52.520;13.332;2024-03-02T04:05:14;68.97;;;26.40;;
19095;SDS011;9680;52.520;13.332;2024-03-02T04:07:40;67.03;;;25.37;;
19095;SDS011;9680;52.520;13.332;2024-03-02T04:10:08;67.63;;;25.40;;
19095;SDS011;9680;52.520;13.332;2024-03-02T04:12:37;64.23;;;24.83;;
19095;SDS011;9680;52.520;13.332;2024-03-02T04:15:04;63.07;;;25.10;;
19095;SDS011;9680;52.520;13.332;2024-03-02T04:17:32;61.77;;;24.57;;
19095;SDS011;9680;52.520;13.332;2024-03-02T04:20:00;62.23;;;24.23;;
19095;SDS011;9680;52.520;13.332;2024-03-02T04:22:32;67.97;;;24.73;;
19095;SDS011;9680;52.520;13.332;2024-03-02T04:24:59;64.87;;;24.27;;
19095;SDS011;9680;52.520;13.332;2024-03-02T04:27:26;57.10;;;23.10;;
19095;SDS011;9680;52.520;13.332;2024-03-02T04:29:52;61.67;;;23.73;;
19095;SDS011;9680;52.520;13.332;2024-03-02T04:32:19;55.57;;;22.87;;
19095;SDS011;9680;52.520;13.332;2024-03-02T04:34:45;61.87;;;24.23;;
19095;SDS011;9680;52.520;13.332;2024-03-02T04:37:12;55.80;;;22.70;;
19095;SDS011;9680;52.520;13.332;2024-03-02T04:39:41;55.60;;;22.93;;
19095;SDS011;9680;52.520;13.332;2024-03-02T04:42:07;55.70;;;22.27;;
19095;SDS011;9680;52.520;13.332;2024-03-02T04:44:34;54.30;;;22.83;;
19095;SDS011;9680;52.520;13.332;2024-03-02T04:47:02;59.77;;;22.23;;
19095;SDS011;9680;52.520;13.332;2024-03-02T04:49:29;52.33;;;22.50;;
19095;SDS011;9680;52.520;13.332;2024-03-02T04:51:56;55.40;;;22.33;;
19095;SDS011;9680;52.520;13.332;2024-03-02T04:54:23;55.10;;;22.30;;
19095;SDS011;9680;52.520;13.332;2024-03-02T04:56:51;55.90;;;23.77;;
19095;SDS011;9680;52.520;13.332;2024-03-02T04:59:17;54.03;;;22.53;;
19095;SDS011;9680;52.520;13.332;2024-03-02T05:01:44;58.60;;;23.33;;
19095;SDS011;9680;52.520;13.332;2024-03-02T05:04:12;55.07;;;22.20;;
19095;SDS011;9680;52.520;13.332;2024-03-02T05:06:39;52.33;;;20.43;;
19095;SDS011;9680;52.520;13.332;2024-03-02T05:09:06;56.50;;;22.67;;
19095;SDS011;9680;52.520;13.332;2024-03-02T05:11:33;50.53;;;22.07;;
19095;SDS011;9680;52.520;13.332;2024-03-02T05:14:28;52.23;;;21.27;;
19095;SDS011;9680;52.520;13.332;2024-03-02T05:16:54;59.10;;;22.77;;
19095;SDS011;9680;52.520;13.332;2024-03-02T05:19:21;54.27;;;22.43;;
19095;SDS011;9680;52.520;13.332;2024-03-02T05:21:48;56.20;;;22.07;;
19095;SDS011;9680;52.520;13.332;2024-03-02T05:24:15;62.73;;;23.50;;
19095;SDS011;9680;52.520;13.332;2024-03-02T05:26:41;59.20;;;23.67;;
19095;SDS011;9680;52.520;13.332;2024-03-02T05:29:08;56.10;;;22.70;;
19095;SDS011;9680;52.520;13.332;2024-03-02T05:31:37;58.67;;;22.47;;
19095;SDS011;9680;52.520;13.332;2024-03-02T05:34:03;56.67;;;23.50;;
19095;SDS011;9680;52.520;13.332;2024-03-02T05:36:30;58.87;;;23.77;;
19095;SDS011;9680;52.520;13.332;2024-03-02T05:38:57;60.10;;;23.67;;
19095;SDS011;9680;52.520;13.332;2024-03-02T05:44:15;58.70;;;23.77;;
19095;SDS011;9680;52.520;13.332;2024-03-02T05:46:43;56.73;;;23.43;;
19095;SDS011;9680;52.520;13.332;2024-03-02T05:49:10;65.30;;;24.90;;
19095;SDS011;9680;52.520;13.332;2024-03-02T05:51:36;68.83;;;25.27;;
19095;SDS011;9680;52.520;13.332;2024-03-02T05:54:03;66.00;;;24.97;;
19095;SDS011;9680;52.520;13.332;2024-03-02T05:56:30;64.30;;;25.13;;
19095;SDS011;9680;52.520;13.332;2024-03-02T05:58:57;66.33;;;24.43;;
19095;SDS011;9680;52.520;13.332;2024-03-02T06:01:33;65.67;;;25.13;;
19095;SDS011;9680;52.520;13.332;2024-03-02T06:04:02;65.97;;;24.67;;
19095;SDS011;9680;52.520;13.332;2024-03-02T06:06:28;62.33;;;24.53;;
19095;SDS011;9680;52.520;13.332;2024-03-02T06:08:57;66.63;;;25.17;;
19095;SDS011;9680;52.520;13.332;2024-03-02T06:11:24;61.90;;;23.33;;
19095;SDS011;9680;52.520;13.332;2024-03-02T06:13:51;65.67;;;25.27;;
19095;SDS011;9680;52.520;13.332;2024-03-02T06:16:17;71.67;;;25.33;;
19095;SDS011;9680;52.520;13.332;2024-03-02T06:18:44;66.83;;;23.80;;
19095;SDS011;9680;52.520;13.332;2024-03-02T06:21:12;66.27;;;26.00;;
19095;SDS011;9680;52.520;13.332;2024-03-02T06:23:39;66.93;;;25.57;;
19095;SDS011;9680;52.520;13.332;2024-03-02T06:26:06;64.53;;;24.37;;
19095;SDS011;9680;52.520;13.332;2024-03-02T06:28:32;59.47;;;24.20;;
19095;SDS011;9680;52.520;13.332;2024-03-02T06:31:00;67.37;;;24.30;;
19095;SDS011;9680;52.520;13.332;2024-03-02T06:33:28;65.33;;;24.97;;
19095;SDS011;9680;52.520;13.332;2024-03-02T06:35:54;75.77;;;24.73;;
19095;SDS011;9680;52.520;13.332;2024-03-02T06:38:23;74.00;;;25.77;;
19095;SDS011;9680;52.520;13.332;2024-03-02T06:40:52;64.77;;;24.53;;
19095;SDS011;9680;52.520;13.332;2024-03-02T06:43:40;67.27;;;24.80;;
19095;SDS011;9680;52.520;13.332;2024-03-02T06:46:07;73.90;;;24.57;;
19095;SDS011;9680;52.520;13.332;2024-03-02T06:48:34;65.53;;;24.77;;
19095;SDS011;9680;52.520;13.332;2024-03-02T06:51:01;67.70;;;24.53;;
19095;SDS011;9680;52.520;13.332;2024-03-02T06:53:32;70.30;;;24.20;;
19095;SDS011;9680;52.520;13.332;2024-03-02T06:55:59;65.40;;;25.00;;
19095;SDS011;9680;52.520;13.332;2024-03-02T06:58:26;60.70;;;22.97;;
19095;SDS011;9680;52.520;13.332;2024-03-02T07:00:53;65.77;;;24.17;;
19095;SDS011;9680;52.520;13.332;2024-03-02T07:03:20;70.30;;;24.13;;
19095;SDS011;9680;52.520;13.332;2024-03-02T07:05:46;65.27;;;24.50;;
19095;SDS011;9680;52.520;13.332;2024-03-02T07:08:13;64.23;;;25.17;;
19095;SDS011;9680;52.520;13.332;2024-03-02T07:10:41;72.40;;;24.37;;
19095;SDS011;9680;52.520;13.332;2024-03-02T07:13:08;68.80;;;25.10;;
19095;SDS011;9680;52.520;13.332;2024-03-02T07:15:35;65.73;;;25.20;;
19095;SDS011;9680;52.520;13.332;2024-03-02T07:18:25;64.17;;;24.60;;
19095;SDS011;9680;52.520;13.332;2024-03-02T07:21:21;63.00;;;23.97;;
19095;SDS011;9680;52.520;13.332;2024-03-02T07:24:15;65.50;;;23.93;;
19095;SDS011;9680;52.520;13.332;2024-03-02T07:26:43;74.27;;;26.30;;
19095;SDS011;9680;52.520;13.332;2024-03-02T07:29:10;60.42;;;24.20;;
19095;SDS011;9680;52.520;13.332;2024-03-02T07:31:37;64.03;;;24.97;;
19095;SDS011;9680;52.520;13.332;2024-03-02T07:34:04;63.10;;;23.80;;
19095;SDS011;9680;52.520;13.332;2024-03-02T07:36:30;65.97;;;24.93;;
19095;SDS011;9680;52.520;13.332;2024-03-02T07:38:57;66.80;;;25.43;;
19095;SDS011;9680;52.520;13.332;2024-03-02T07:41:24;65.60;;;23.57;;
19095;SDS011;9680;52.520;13.332;2024-03-02T07:43:52;60.03;;;24.73;;
19095;SDS011;9680;52.520;13.332;2024-03-02T07:46:19;65.93;;;24.67;;
19095;SDS011;9680;52.520;13.332;2024-03-02T07:48:46;61.87;;;23.97;;
19095;SDS011;9680;52.520;13.332;2024-03-02T07:51:13;62.87;;;23.67;;
19095;SDS011;9680;52.520;13.332;2024-03-02T07:53:40;62.67;;;24.50;;
19095;SDS011;9680;52.520;13.332;2024-03-02T07:56:07;68.70;;;25.37;;
19095;SDS011;9680;52.520;13.332;2024-03-02T07:58:34;66.53;;;24.93;;
19095;SDS011;9680;52.520;13.332;2024-03-02T08:01:03;64.40;;;24.93;;
19095;SDS011;9680;52.520;13.332;2024-03-02T08:03:30;62.90;;;25.43;;
19095;SDS011;9680;52.520;13.332;2024-03-02T08:05:59;58.60;;;24.33;;
19095;SDS011;9680;52.520;13.332;2024-03-02T08:08:26;66.90;;;25.37;;
19095;SDS011;9680;52.520;13.332;2024-03-02T08:10:53;63.28;;;23.70;;
19095;SDS011;9680;52.520;13.332;2024-03-02T08:13:20;61.72;;;23.63;;
19095;SDS011;9680;52.520;13.332;2024-03-02T08:15:46;64.50;;;24.30;;
19095;SDS011;9680;52.520;13.332;2024-03-02T08:18:15;68.00;;;23.53;;
19095;SDS011;9680;52.520;13.332;2024-03-02T08:20:42;62.47;;;22.95;;
19095;SDS011;9680;52.520;13.332;2024-03-02T08:23:08;54.65;;;22.00;;
19095;SDS011;9680;52.520;13.332;2024-03-02T08:25:35;61.38;;;23.30;;
19095;SDS011;9680;52.520;13.332;2024-03-02T08:28:03;63.63;;;22.13;;
19095;SDS011;9680;52.520;13.332;2024-03-02T08:30:45;60.03;;;22.00;;
19095;SDS011;9680;52.520;13.332;2024-03-02T08:33:12;60.50;;;22.70;;
19095;SDS011;9680;52.520;13.332;2024-03-02T08:35:40;61.80;;;22.53;;
19095;SDS011;9680;52.520;13.332;2024-03-02T08:38:07;56.57;;;22.10;;
19095;SDS011;9680;52.520;13.332;2024-03-02T08:40:34;57.83;;;22.70;;
19095;SDS011;9680;52.520;13.332;2024-03-02T08:43:01;58.83;;;22.95;;
19095;SDS011;9680;52.520;13.332;2024-03-02T08:45:28;61.28;;;23.15;;
19095;SDS011;9680;52.520;13.332;2024-03-02T08:47:55;55.90;;;23.42;;
19095;SDS011;9680;52.520;13.332;2024-03-02T08:50:24;58.40;;;23.53;;
19095;SDS011;9680;52.520;13.332;2024-03-02T08:52:52;61.03;;;23.30;;
19095;SDS011;9680;52.520;13.332;2024-03-02T08:55:19;59.50;;;22.73;;
19095;SDS011;9680;52.520;13.332;2024-03-02T08:57:46;59.57;;;23.47;;
19095;SDS011;9680;52.520;13.332;2024-03-02T09:00:15;69.03;;;24.30;;
19095;SDS011;9680;52.520;13.332;2024-03-02T09:02:43;63.37;;;24.10;;
19095;SDS011;9680;52.520;13.332;2024-03-02T09:05:11;57.27;;;23.33;;
19095;SDS011;9680;52.520;13.332;2024-03-02T09:07:38;61.28;;;23.52;;
19095;SDS011;9680;52.520;13.332;2024-03-02T09:10:07;61.27;;;23.60;;
19095;SDS011;9680;52.520;13.332;2024-03-02T09:12:35;59.77;;;23.10;;
19095;SDS011;9680;52.520;13.332;2024-03-02T09:15:02;57.80;;;22.30;;
19095;SDS011;9680;52.520;13.332;2024-03-02T09:17:29;58.83;;;21.17;;
19095;SDS011;9680;52.520;13.332;2024-03-02T09:19:56;54.17;;;21.93;;
19095;SDS011;9680;52.520;13.332;2024-03-02T09:22:23;53.53;;;21.85;;
19095;SDS011;9680;52.520;13.332;2024-03-02T09:24:50;53.07;;;21.20;;
19095;SDS011;9680;52.520;13.332;2024-03-02T09:27:18;59.88;;;22.40;;
19095;SDS011;9680;52.520;13.332;2024-03-02T09:29:45;61.67;;;22.50;;
19095;SDS011;9680;52.520;13.332;2024-03-02T09:32:12;58.50;;;23.13;;
19095;SDS011;9680;52.520;13.332;2024-03-02T09:34:39;60.10;;;22.07;;
19095;SDS011;9680;52.520;13.332;2024-03-02T09:37:06;62.35;;;22.65;;
19095;SDS011;9680;52.520;13.332;2024-03-02T09:39:34;58.20;;;21.85;;
19095;SDS011;9680;52.520;13.332;2024-03-02T09:42:01;48.28;;;20.35;;
19095;SDS011;9680;52.520;13.332;2024-03-02T09:44:31;54.80;;;22.13;;
19095;SDS011;9680;52.520;13.332;2024-03-02T09:46:59;51.42;;;20.85;;
19095;SDS011;9680;52.520;13.332;2024-03-02T09:49:26;48.88;;;21.20;;
19095;SDS011;9680;52.520;13.332;2024-03-02T09:51:53;53.08;;;20.52;;
19095;SDS011;9680;52.520;13.332;2024-03-02T09:54:20;48.40;;;19.83;;
19095;SDS011;9680;52.520;13.332;2024-03-02T09:56:47;50.28;;;20.50;;
19095;SDS011;9680;52.520;13.332;2024-03-02T09:59:14;53.00;;;20.67;;
19095;SDS011;9680;52.520;13.332;2024-03-02T10:01:56;49.95;;;20.42;;
19095;SDS011;9680;52.520;13.332;2024-03-02T10:04:25;50.47;;;20.05;;
19095;SDS011;9680;52.520;13.332;2024-03-02T10:06:58;49.72;;;19.95;;
19095;SDS011;9680;52.520;13.332;2024-03-02T10:09:36;49.33;;;19.67;;
19095;SDS011;9680;52.520;13.332;2024-03-02T10:12:03;57.00;;;21.08;;
19095;SDS011;9680;52.520;13.332;2024-03-02T10:14:31;49.40;;;20.08;;
19095;SDS011;9680;52.520;13.332;2024-03-02T10:17:02;52.53;;;20.88;;
19095;SDS011;9680;52.520;13.332;2024-03-02T10:19:30;47.63;;;18.95;;
19095;SDS011;9680;52.520;13.332;2024-03-02T10:21:58;43.65;;;18.52;;
19095;SDS011;9680;52.520;13.332;2024-03-02T10:24:25;45.35;;;19.02;;
19095;SDS011;9680;52.520;13.332;2024-03-02T10:26:52;42.70;;;18.23;;
19095;SDS011;9680;52.520;13.332;2024-03-02T10:29:19;45.65;;;19.10;;
19095;SDS011;9680;52.520;13.332;2024-03-02T10:31:46;45.65;;;18.13;;
19095;SDS011;9680;52.520;13.332;2024-03-02T10:34:15;40.50;;;17.50;;
19095;SDS011;9680;52.520;13.332;2024-03-02T10:36:43;40.22;;;16.63;;
19095;SDS011;9680;52.520;13.332;2024-03-02T10:39:10;41.30;;;17.58;;
19095;SDS011;9680;52.520;13.332;2024-03-02T10:41:39;42.00;;;17.17;;
19095;SDS011;9680;52.520;13.332;2024-03-02T10:44:07;43.28;;;17.23;;
19095;SDS011;9680;52.520;13.332;2024-03-02T10:46:36;44.30;;;17.17;;
19095;SDS011;9680;52.520;13.332;2024-03-02T10:49:04;35.55;;;15.60;;
19095;SDS011;9680;52.520;13.332;2024-03-02T10:51:33;40.95;;;15.90;;
19095;SDS011;9680;52.520;13.332;2024-03-02T10:54:02;38.70;;;17.13;;
19095;SDS011;9680;52.520;13.332;2024-03-02T10:56:30;36.42;;;16.05;;
19095;SDS011;9680;52.520;13.332;2024-03-02T10:59:01;35.22;;;15.82;;
19095;SDS011;9680;52.520;13.332;2024-03-02T11:01:31;37.97;;;16.33;;
19095;SDS011;9680;52.520;13.332;2024-03-02T11:03:59;36.47;;;15.55;;
19095;SDS011;9680;52.520;13.332;2024-03-02T11:06:28;39.70;;;15.93;;
19095;SDS011;9680;52.520;13.332;2024-03-02T11:09:00;37.42;;;16.30;;
19095;SDS011;9680;52.520;13.332;2024-03-02T11:11:36;35.70;;;15.68;;
19095;SDS011;9680;52.520;13.332;2024-03-02T11:14:07;43.03;;;16.42;;
19095;SDS011;9680;52.520;13.332;2024-03-02T11:16:37;35.75;;;14.88;;
19095;SDS011;9680;52.520;13.332;2024-03-02T11:19:07;36.72;;;15.23;;
19095;SDS011;9680;52.520;13.332;2024-03-02T11:21:37;33.53;;;14.60;;
19095;SDS011;9680;52.520;13.332;2024-03-02T11:27:02;37.08;;;15.50;;
19095;SDS011;9680;52.520;13.332;2024-03-02T11:29:44;33.45;;;14.70;;
19095;SDS011;9680;52.520;13.332;2024-03-02T11:32:16;32.22;;;13.77;;
19095;SDS011;9680;52.520;13.332;2024-03-02T11:34:48;32.72;;;13.63;;
19095;SDS011;9680;52.520;13.332;2024-03-02T11:37:18;30.80;;;13.95;;
19095;SDS011;9680;52.520;13.332;2024-03-02T11:39:50;31.15;;;13.38;;
19095;SDS011;9680;52.520;13.332;2024-03-02T11:42:17;37.03;;;14.25;;
19095;SDS011;9680;52.520;13.332;2024-03-02T11:44:46;30.60;;;13.38;;
19095;SDS011;9680;52.520;13.332;2024-03-02T11:47:15;34.25;;;13.18;;
19095;SDS011;9680;52.520;13.332;2024-03-02T11:49:43;32.72;;;13.68;;
19095;SDS011;9680;52.520;13.332;2024-03-02T11:52:12;31.38;;;13.65;;
19095;SDS011;9680;52.520;13.332;2024-03-02T11:54:40;36.65;;;14.02;;
19095;SDS011;9680;52.520;13.332;2024-03-02T11:57:13;35.70;;;14.50;;
19095;SDS011;9680;52.520;13.332;2024-03-02T11:59:41;28.65;;;13.32;;
19095;SDS011;9680;52.520;13.332;2024-03-02T12:02:14;31.80;;;14.07;;
19095;SDS011;9680;52.520;13.332;2024-03-02T12:04:42;32.22;;;13.98;;
19095;SDS011;9680;52.520;13.332;2024-03-02T12:07:10;30.77;;;14.88;;
19095;SDS011;9680;52.520;13.332;2024-03-02T12:09:37;35.88;;;14.25;;
19095;SDS011;9680;52.520;13.332;2024-03-02T12:12:04;31.00;;;14.35;;
19095;SDS011;9680;52.520;13.332;2024-03-02T12:14:33;33.40;;;14.68;;
19095;SDS011;9680;52.520;13.332;2024-03-02T12:17:01;31.25;;;13.93;;
19095;SDS011;9680;52.520;13.332;2024-03-02T12:19:29;33.88;;;14.43;;
19095;SDS011;9680;52.520;13.332;2024-03-02T12:21:56;35.63;;;14.23;;
19095;SDS011;9680;52.520;13.332;2024-03-02T12:24:24;33.72;;;14.27;;
19095;SDS011;9680;52.520;13.332;2024-03-02T12:26:52;33.33;;;14.38;;
19095;SDS011;9680;52.520;13.332;2024-03-02T12:29:20;29.80;;;13.55;;
19095;SDS011;9680;52.520;13.332;2024-03-02T12:31:49;35.45;;;14.13;;
19095;SDS011;9680;52.520;13.332;2024-03-02T12:34:16;33.00;;;13.88;;
19095;SDS011;9680;52.520;13.332;2024-03-02T12:36:44;31.33;;;14.05;;
19095;SDS011;9680;52.520;13.332;2024-03-02T12:39:14;34.78;;;14.43;;
19095;SDS011;9680;52.520;13.332;2024-03-02T12:41:41;39.30;;;14.73;;
19095;SDS011;9680;52.520;13.332;2024-03-02T12:44:08;37.17;;;14.30;;
19095;SDS011;9680;52.520;13.332;2024-03-02T12:46:35;33.30;;;13.73;;
19095;SDS011;9680;52.520;13.332;2024-03-02T12:49:07;38.90;;;14.98;;
19095;SDS011;9680;52.520;13.332;2024-03-02T12:51:35;39.75;;;15.25;;
19095;SDS011;9680;52.520;13.332;2024-03-02T12:54:02;31.20;;;13.73;;
19095;SDS011;9680;52.520;13.332;2024-03-02T12:56:30;32.28;;;15.25;;
19095;SDS011;9680;52.520;13.332;2024-03-02T12:58:58;35.33;;;14.98;;
19095;SDS011;9680;52.520;13.332;2024-03-02T13:01:25;31.75;;;15.13;;
19095;SDS011;9680;52.520;13.332;2024-03-02T13:03:52;35.63;;;14.85;;
19095;SDS011;9680;52.520;13.332;2024-03-02T13:06:21;32.53;;;14.55;;
19095;SDS011;9680;52.520;13.332;2024-03-02T13:08:48;33.63;;;15.15;;
19095;SDS011;9680;52.520;13.332;2024-03-02T13:11:16;35.97;;;15.60;;
19095;SDS011;9680;52.520;13.332;2024-03-02T13:13:43;38.03;;;15.23;;
19095;SDS011;9680;52.520;13.332;2024-03-02T13:16:10;35.05;;;14.10;;
19095;SDS011;9680;52.520;13.332;2024-03-02T13:18:38;34.38;;;14.45;;
19095;SDS011;9680;52.520;13.332;2024-03-02T13:21:05;34.22;;;14.13;;
19095;SDS011;9680;52.520;13.332;2024-03-02T13:23:33;36.08;;;15.10;;
19095;SDS011;9680;52.520;13.332;2024-03-02T13:26:00;35.72;;;13.48;;
19095;SDS011;9680;52.520;13.332;2024-03-02T13:28:27;30.50;;;13.32;;
19095;SDS011;9680;52.520;13.332;2024-03-02T13:30:54;32.50;;;14.15;;
19095;SDS011;9680;52.520;13.332;2024-03-02T13:33:20;29.52;;;13.57;;
19095;SDS011;9680;52.520;13.332;2024-03-02T13:35:48;35.78;;;14.10;;
19095;SDS011;9680;52.520;13.332;2024-03-02T13:38:16;32.67;;;14.30;;
19095;SDS011;9680;52.520;13.332;2024-03-02T13:40:45;30.83;;;13.40;;
19095;SDS011;9680;52.520;13.332;2024-03-02T13:43:12;30.45;;;13.02;;
19095;SDS011;9680;52.520;13.332;2024-03-02T13:45:39;28.35;;;12.73;;
19095;SDS011;9680;52.520;13.332;2024-03-02T13:48:06;28.27;;;12.50;;
19095;SDS011;9680;52.520;13.332;2024-03-02T13:50:33;28.95;;;12.48;;
19095;SDS011;9680;52.520;13.332;2024-03-02T13:53:00;30.52;;;12.95;;
19095;SDS011;9680;52.520;13.332;2024-03-02T13:55:28;29.30;;;12.18;;
19095;SDS011;9680;52.520;13.332;2024-03-02T13:57:57;28.50;;;11.85;;
19095;SDS011;9680;52.520;13.332;2024-03-02T14:00:23;27.25;;;11.15;;
19095;SDS011;9680;52.520;13.332;2024-03-02T14:02:50;27.05;;;11.73;;
19095;SDS011;9680;52.520;13.332;2024-03-02T14:05:17;29.30;;;11.73;;
19095;SDS011;9680;52.520;13.332;2024-03-02T14:07:44;26.63;;;10.93;;
19095;SDS011;9680;52.520;13.332;2024-03-02T14:10:11;27.92;;;11.27;;
19095;SDS011;9680;52.520;13.332;2024-03-02T14:12:38;24.05;;;10.43;;
19095;SDS011;9680;52.520;13.332;2024-03-02T14:15:07;24.08;;;10.95;;
19095;SDS011;9680;52.520;13.332;2024-03-02T14:17:34;26.65;;;11.48;;
19095;SDS011;9680;52.520;13.332;2024-03-02T14:20:01;24.58;;;10.35;;
19095;SDS011;9680;52.520;13.332;2024-03-02T14:22:30;23.05;;;10.23;;
19095;SDS011;9680;52.520;13.332;2024-03-02T14:24:57;20.10;;;9.75;;
19095;SDS011;9680;52.520;13.332;2024-03-02T14:27:24;20.73;;;9.32;;
19095;SDS011;9680;52.520;13.332;2024-03-02T14:29:51;28.10;;;9.23;;
19095;SDS011;9680;52.520;13.332;2024-03-02T14:32:19;20.38;;;9.15;;